CZUM/ZUM METAR and TAF weather

Enter ICAO airport designator
Station Type Date Time Source
CZUM METAR 2018/12/10 19:00 UTC NOAA

CZUM 101900Z AUTO 33009KT 9SM CLR M16/M20 A2993 RMK SLP182


Station Type Date Time Source
CZUM Decoded METAR 2018/12/10 19:00 UTC NOAA

Churchill Falls, Nfld., Canada (CZUM) 53-33N 064-06W 440M
Dec 10, 2018 - 02:00 PM EST / 2018.12.10 1900 UTC
Wind: from the NNW (330 degrees) at 10 MPH (9 KT):0
Visibility: 9 mile(s):0
Sky conditions: clear
Temperature: 3 F (-16 C)
Windchill: -13 F (-25 C):2
Dew Point: -4 F (-20 C)
Relative Humidity: 71%
Pressure (altimeter): 29.93 in. Hg (1013 hPa)
ob: CZUM 101900Z AUTO 33009KT 9SM CLR M16/M20 A2993 RMK SLP182
cycle: 19

Station Type Date Time Source
CZUM TAF 2018/12/10 20:39 UTC NOAA

TAF CZUM 101938Z 1020/1108 31005KT P6SM BKN030 OVC120
TEMPO 1020/1102 SCT030 OVC120
FM110200 30005KT P6SM BKN030 OVC100
TEMPO 1102/1108 3SM -SN BKN020 OVC100
RMK FCST BASED ON AUTO OBS. NXT FCST BY 110200Z


Example: see airport list